createdAt,value
2023-03-22T00:01:16.159Z,53.53
2023-03-22T00:03:42.812Z,56.02
2023-03-22T00:06:09.569Z,56.52
2023-03-22T00:08:36.222Z,56.69
2023-03-22T00:11:03.107Z,56.74
2023-03-22T00:13:29.750Z,57.35
2023-03-22T00:15:56.382Z,56.41
2023-03-22T00:18:23.286Z,55.46
2023-03-22T00:20:50.566Z,56.41
2023-03-22T00:23:17.246Z,54.44
2023-03-22T00:25:44.797Z,53.58
2023-03-22T00:28:11.751Z,53.79
2023-03-22T00:30:38.574Z,53.84
2023-03-22T00:33:05.307Z,53.17
2023-03-22T00:35:32.043Z,53.09
2023-03-22T00:37:58.709Z,53.34
2023-03-22T00:40:25.352Z,53.05
2023-03-22T00:42:51.983Z,53.32
2023-03-22T00:45:18.616Z,54.03
2023-03-22T00:47:45.257Z,54.14
2023-03-22T00:50:11.875Z,54.02
2023-03-22T00:52:38.528Z,54.93
2023-03-22T00:55:05.605Z,55.19
2023-03-22T00:57:32.229Z,54.79
2023-03-22T00:59:58.874Z,54.33
2023-03-22T01:02:25.495Z,53.68
2023-03-22T01:04:52.137Z,53.80
2023-03-22T01:07:18.776Z,54.93
2023-03-22T01:09:45.423Z,54.69
2023-03-22T01:12:12.088Z,53.63
2023-03-22T01:14:38.880Z,53.59
2023-03-22T01:17:05.590Z,52.89
2023-03-22T01:19:32.225Z,52.93
2023-03-22T01:21:58.882Z,53.66
2023-03-22T01:24:25.537Z,53.52
2023-03-22T01:26:52.173Z,52.80
2023-03-22T01:29:18.824Z,53.06
2023-03-22T01:31:45.465Z,52.78
2023-03-22T01:34:12.097Z,52.50
2023-03-22T01:36:38.746Z,52.41
2023-03-22T01:39:05.394Z,53.04
2023-03-22T01:41:32.011Z,52.87
2023-03-22T01:44:14.611Z,52.62
2023-03-22T01:46:42.204Z,53.68
2023-03-22T01:49:31.474Z,54.32
2023-03-22T01:52:00.721Z,56.47
2023-03-22T01:54:47.519Z,56.50
2023-03-22T01:57:14.162Z,55.76
2023-03-22T01:59:40.918Z,54.23
2023-03-22T02:02:07.568Z,54.31
2023-03-22T02:04:35.832Z,56.27
2023-03-22T02:07:04.823Z,54.62
2023-03-22T02:09:33.496Z,53.81
2023-03-22T02:12:10.768Z,53.96
2023-03-22T02:15:03.730Z,53.28
2023-03-22T02:17:40.137Z,52.69
2023-03-22T02:20:25.322Z,53.15
2023-03-22T02:23:19.141Z,53.55
2023-03-22T02:26:12.217Z,52.80
2023-03-22T02:28:38.730Z,53.18
2023-03-22T02:31:24.414Z,53.39
2023-03-22T02:34:16.795Z,52.99
2023-03-22T02:37:04.884Z,53.53
2023-03-22T02:39:38.359Z,53.93
2023-03-22T02:42:23.588Z,53.38
2023-03-22T02:45:28.970Z,52.64
2023-03-22T02:48:04.075Z,52.48
2023-03-22T02:50:32.681Z,52.59
2023-03-22T02:53:10.022Z,52.60
2023-03-22T02:55:40.737Z,53.58
2023-03-22T02:58:20.051Z,53.46
2023-03-22T03:00:46.956Z,52.78
2023-03-22T03:03:13.945Z,51.44
2023-03-22T03:05:43.170Z,51.70
2023-03-22T03:08:10.443Z,51.58
2023-03-22T03:10:37.821Z,51.66
2023-03-22T03:13:04.662Z,52.54
2023-03-22T03:15:31.326Z,51.39
2023-03-22T03:18:10.775Z,52.38
2023-03-22T03:20:43.382Z,50.93
2023-03-22T03:23:40.340Z,51.89
2023-03-22T03:26:12.487Z,51.38
2023-03-22T03:28:39.804Z,52.13
2023-03-22T03:31:09.336Z,52.37
2023-03-22T03:33:38.098Z,51.58
2023-03-22T03:36:12.153Z,52.58
2023-03-22T03:38:40.988Z,53.09
2023-03-22T03:41:10.437Z,52.81
2023-03-22T03:43:37.083Z,54.28
2023-03-22T03:46:03.809Z,53.84
2023-03-22T03:48:32.284Z,53.92
2023-03-22T03:50:59.402Z,53.11
2023-03-22T03:53:26.053Z,53.43
2023-03-22T03:55:52.736Z,52.52
2023-03-22T03:58:19.358Z,54.61
2023-03-22T04:00:46.132Z,53.21
2023-03-22T04:03:12.912Z,53.83
2023-03-22T04:05:39.547Z,55.04
2023-03-22T04:08:06.201Z,54.20
2023-03-22T04:10:32.818Z,54.71
2023-03-22T04:12:59.471Z,54.51
2023-03-22T04:15:26.116Z,55.41
2023-03-22T04:17:52.731Z,55.58
2023-03-22T04:20:19.520Z,54.72
2023-03-22T04:22:46.150Z,55.41
2023-03-22T04:25:12.892Z,55.56
2023-03-22T04:27:39.894Z,54.53
2023-03-22T04:30:07.618Z,55.84
2023-03-22T04:32:34.297Z,56.58
2023-03-22T04:35:00.998Z,56.75
2023-03-22T04:37:27.625Z,56.48
2023-03-22T04:39:54.293Z,56.36
2023-03-22T04:42:20.940Z,55.80
2023-03-22T04:44:47.626Z,56.42
2023-03-22T04:47:14.303Z,55.57
2023-03-22T04:49:40.942Z,55.17
2023-03-22T04:52:07.790Z,55.64
2023-03-22T04:54:34.410Z,55.65
2023-03-22T04:57:01.048Z,55.12
2023-03-22T04:59:27.688Z,55.32
2023-03-22T05:01:54.373Z,54.41
2023-03-22T05:04:21.099Z,55.14
2023-03-22T05:06:47.714Z,55.10
2023-03-22T05:09:14.357Z,54.85
2023-03-22T05:11:41.042Z,54.90
2023-03-22T05:14:08.457Z,55.81
2023-03-22T05:16:35.183Z,55.53
2023-03-22T05:19:02.031Z,55.18
2023-03-22T05:21:29.152Z,54.57
2023-03-22T05:23:56.400Z,55.16
2023-03-22T05:26:23.834Z,54.62
2023-03-22T05:28:50.971Z,55.56
2023-03-22T05:31:18.029Z,55.53
2023-03-22T05:33:44.742Z,54.65
2023-03-22T05:36:11.480Z,55.81
2023-03-22T05:38:38.126Z,55.23
2023-03-22T05:41:04.872Z,55.75
2023-03-22T05:43:31.505Z,55.80
2023-03-22T05:45:58.173Z,54.86
2023-03-22T05:48:24.838Z,55.28
2023-03-22T05:50:51.483Z,56.04
2023-03-22T05:53:18.102Z,55.61
2023-03-22T05:55:44.734Z,55.89
2023-03-22T05:58:11.381Z,55.72
2023-03-22T06:00:38.259Z,55.73
2023-03-22T06:03:05.035Z,55.52
2023-03-22T06:05:31.728Z,55.50
2023-03-22T06:07:58.816Z,55.82
2023-03-22T06:10:25.449Z,55.89
2023-03-22T06:12:52.446Z,56.13
2023-03-22T06:15:19.117Z,56.51
2023-03-22T06:17:45.874Z,55.87
2023-03-22T06:20:13.113Z,56.44
2023-03-22T06:22:40.162Z,55.86
2023-03-22T06:25:07.546Z,56.88
2023-03-22T06:27:34.164Z,57.08
2023-03-22T06:30:00.785Z,57.16
2023-03-22T06:32:27.448Z,56.31
2023-03-22T06:34:54.553Z,56.67
2023-03-22T06:37:22.455Z,56.88
2023-03-22T06:39:49.111Z,56.41
2023-03-22T06:42:15.751Z,57.62
2023-03-22T06:44:42.393Z,57.18
2023-03-22T06:47:09.027Z,57.56
2023-03-22T06:49:35.699Z,57.65
2023-03-22T06:52:02.326Z,58.61
2023-03-22T06:54:29.015Z,58.65
2023-03-22T06:56:55.681Z,57.49
2023-03-22T06:59:22.342Z,57.63
2023-03-22T07:01:49.002Z,57.93
2023-03-22T07:04:15.951Z,56.65
2023-03-22T07:06:42.679Z,55.57
2023-03-22T07:09:09.324Z,56.05
2023-03-22T07:11:35.972Z,56.09
2023-03-22T07:14:02.652Z,54.80
2023-03-22T07:16:29.722Z,55.20
2023-03-22T07:18:56.414Z,54.70
2023-03-22T07:21:23.071Z,55.08
2023-03-22T07:23:49.724Z,55.59
2023-03-22T07:26:16.368Z,53.87
2023-03-22T07:28:43.021Z,50.72
2023-03-22T07:31:10.062Z,49.31
2023-03-22T07:33:36.771Z,51.72
2023-03-22T07:36:04.729Z,48.94
2023-03-22T07:38:31.382Z,48.08
2023-03-22T07:40:58.148Z,47.89
2023-03-22T07:43:24.820Z,49.44
2023-03-22T07:45:51.713Z,50.33
2023-03-22T07:48:19.912Z,49.96
2023-03-22T07:50:47.348Z,49.25
2023-03-22T07:53:14.009Z,48.49
2023-03-22T07:55:40.651Z,49.45
2023-03-22T07:58:07.313Z,49.84
2023-03-22T08:00:33.987Z,49.49
2023-03-22T08:03:01.289Z,49.93
2023-03-22T08:05:27.952Z,49.66
2023-03-22T08:07:54.614Z,48.99
2023-03-22T08:10:21.268Z,48.76
2023-03-22T08:12:47.934Z,48.56
2023-03-22T08:15:14.670Z,47.77
2023-03-22T08:17:41.323Z,49.50
2023-03-22T08:20:08.739Z,50.38
2023-03-22T08:22:36.235Z,51.93
2023-03-22T08:25:03.862Z,55.18
2023-03-22T08:27:30.530Z,56.47
2023-03-22T08:29:57.230Z,55.58
2023-03-22T08:32:23.920Z,55.58
2023-03-22T08:34:50.559Z,55.95
2023-03-22T08:37:17.256Z,54.92
2023-03-22T08:39:43.970Z,55.24
2023-03-22T08:42:10.622Z,53.93
2023-03-22T08:44:37.265Z,50.36
2023-03-22T08:47:03.969Z,50.83
2023-03-22T08:49:30.626Z,51.62
2023-03-22T08:51:57.293Z,52.95
2023-03-22T08:54:23.998Z,52.77
2023-03-22T08:56:50.633Z,52.15
2023-03-22T08:59:17.311Z,52.47
2023-03-22T09:01:44.016Z,49.09
2023-03-22T09:04:10.962Z,45.53
2023-03-22T09:06:37.695Z,41.82
2023-03-22T09:09:04.321Z,39.75
2023-03-22T09:11:31.064Z,39.53
2023-03-22T09:13:57.733Z,39.13
2023-03-22T09:16:24.500Z,39.99
2023-03-22T09:18:54.217Z,40.47
2023-03-22T09:21:20.871Z,40.73
2023-03-22T09:23:47.519Z,40.35
2023-03-22T09:26:14.209Z,40.26
2023-03-22T09:28:41.191Z,41.17
2023-03-22T09:31:08.716Z,42.51
2023-03-22T09:33:38.544Z,42.72
2023-03-22T09:36:05.297Z,43.57
2023-03-22T09:38:31.981Z,42.28
2023-03-22T09:41:02.055Z,41.21
2023-03-22T09:43:31.510Z,40.83
2023-03-22T09:46:01.464Z,41.98
2023-03-22T09:48:33.478Z,42.07
2023-03-22T09:51:00.604Z,40.64
2023-03-22T09:53:29.693Z,40.70
2023-03-22T09:56:09.341Z,42.76
2023-03-22T09:58:46.483Z,44.01
2023-03-22T10:01:26.688Z,44.76
2023-03-22T10:04:03.309Z,43.06
2023-03-22T10:06:30.030Z,41.83
2023-03-22T10:09:07.879Z,40.88
2023-03-22T10:11:46.688Z,41.88
2023-03-22T10:14:39.492Z,40.56
2023-03-22T10:17:09.578Z,39.49
2023-03-22T10:19:43.666Z,39.82
2023-03-22T10:22:10.346Z,39.20
2023-03-22T10:24:39.848Z,38.36
2023-03-22T10:27:17.337Z,40.83
2023-03-22T10:29:46.558Z,40.64
2023-03-22T10:32:14.206Z,39.56
2023-03-22T10:34:40.861Z,39.87
2023-03-22T10:37:07.540Z,41.48
2023-03-22T10:39:34.114Z,40.66
2023-03-22T10:42:02.763Z,41.12
2023-03-22T10:44:31.030Z,40.02
2023-03-22T10:46:59.020Z,39.52
2023-03-22T10:49:29.435Z,39.23
2023-03-22T10:52:20.939Z,39.82
2023-03-22T10:54:47.594Z,40.44
2023-03-22T10:57:16.330Z,41.32
2023-03-22T10:59:50.700Z,41.25
2023-03-22T11:02:22.339Z,39.08
2023-03-22T11:05:15.567Z,38.36
2023-03-22T11:07:45.296Z,40.15
2023-03-22T11:10:31.386Z,39.40
2023-03-22T11:13:06.982Z,40.28
2023-03-22T11:15:38.661Z,39.59
2023-03-22T11:18:14.713Z,40.46
2023-03-22T11:20:44.614Z,41.38
2023-03-22T11:23:12.449Z,38.92
2023-03-22T11:25:45.302Z,38.50
2023-03-22T11:28:48.036Z,40.21
2023-03-22T11:31:18.249Z,39.89
2023-03-22T11:33:53.905Z,39.67
2023-03-22T11:36:21.694Z,39.79
2023-03-22T11:38:48.980Z,39.14
2023-03-22T11:41:26.614Z,39.24
2023-03-22T11:43:54.716Z,39.36
2023-03-22T11:46:21.489Z,39.42
2023-03-22T11:48:51.825Z,37.92
2023-03-22T11:51:26.834Z,38.94
2023-03-22T11:53:56.941Z,39.83
2023-03-22T11:56:29.993Z,40.88
2023-03-22T11:58:58.996Z,40.59
2023-03-22T12:01:49.359Z,40.84
2023-03-22T12:04:20.490Z,39.83
2023-03-22T12:06:47.188Z,39.46
2023-03-22T12:09:26.797Z,39.59
2023-03-22T12:11:55.213Z,39.58
2023-03-22T12:14:29.384Z,37.98
2023-03-22T12:17:06.329Z,38.35
2023-03-22T12:19:42.013Z,38.37
2023-03-22T12:22:13.349Z,41.07
2023-03-22T12:24:40.807Z,40.27
2023-03-22T12:27:34.307Z,37.95
2023-03-22T12:30:06.779Z,39.68
2023-03-22T12:32:38.820Z,38.60
2023-03-22T12:35:16.595Z,40.85
2023-03-22T12:37:43.741Z,40.59
2023-03-22T12:40:29.259Z,38.92
2023-03-22T12:43:16.088Z,38.00
2023-03-22T12:45:44.732Z,37.61
2023-03-22T12:48:41.161Z,39.06
2023-03-22T12:51:09.059Z,39.07
2023-03-22T12:53:38.446Z,40.81
2023-03-22T12:56:05.301Z,39.95
2023-03-22T12:58:31.993Z,40.29
2023-03-22T13:01:01.654Z,38.21
2023-03-22T13:03:30.496Z,39.50
2023-03-22T13:06:05.077Z,39.33
2023-03-22T13:09:21.340Z,39.23
2023-03-22T13:12:15.777Z,38.05
2023-03-22T13:14:54.493Z,38.44
2023-03-22T13:17:24.393Z,38.33
2023-03-22T13:20:00.906Z,37.84
2023-03-22T13:22:28.959Z,37.86
2023-03-22T13:25:10.761Z,39.01
2023-03-22T13:27:42.099Z,37.51
2023-03-22T13:30:26.826Z,36.88
2023-03-22T13:33:00.821Z,36.32
2023-03-22T13:35:40.308Z,37.80
2023-03-22T13:38:09.037Z,38.43
2023-03-22T13:40:58.598Z,38.12
2023-03-22T13:43:43.434Z,37.07
2023-03-22T13:46:28.312Z,37.87
2023-03-22T13:49:26.701Z,39.02
2023-03-22T13:51:53.336Z,38.36
2023-03-22T13:54:22.978Z,36.98
2023-03-22T13:56:54.630Z,37.77
2023-03-22T13:59:27.624Z,38.28
2023-03-22T14:02:19.755Z,38.46
2023-03-22T14:04:48.903Z,37.15
2023-03-22T14:07:27.276Z,36.62
2023-03-22T14:09:59.065Z,36.98
2023-03-22T14:12:32.278Z,37.43
2023-03-22T14:15:01.643Z,35.58
2023-03-22T14:17:39.207Z,36.31
2023-03-22T14:20:06.376Z,36.56
